Auburn, Kentucky
Current Conditions -  °F | °C
As of 10:53 PM on Friday 31 Oct 2014 (Local Time) from KBWG Reporting Station
Overcast Overcast  
Wind Chill: 32°   Ceiling: 3600
Heat Index: 41°   Visibility: 10mi
Dew Point: 26°   Wind: 18mph
Humidity: 55%   Direction: 330°NNW
Pressure: 30.12"   Gusts: 25mph
Location:  36.86°N, 86.71°W
Report Text: KBWG 010353Z AUTO 33016G22KT 10SM OVC036 05/M03 A3012 RMK AO2 SLP200 T00501033
Loading
Personal Weather Stations






























Interactive Weather Map
Tropical Storm Tracking
New forecast layout! Learn more

10-Day Weather Forecast

Advertisements
Track Severe Weather on mobile